Terminal Aerodrome Forecast
Issued by NWS

Home | Current Version | Previous Version | Text Only | Print | Product List | Glossary On
Versions: 1 2 3 4 5 6 7 8 9 10 11 12 13 14 15 16 17
768
FTUS45 KABQ 260537
TAFSAF
TAF
KSAF 260537Z 2606/2706 15010KT P6SM FEW250
     FM261100 VRB06KT P6SM SCT200
     FM262000 17009G16KT P6SM SCT200
     FM262300 15006KT P6SM SCT200=

USA.gov is the U.S. government's official web portal to all federal, state and local government web resources and services.